createdAt,value
2023-01-15T00:01:41.651Z,9.10
2023-01-15T00:04:43.465Z,9.10
2023-01-15T00:07:36.913Z,9.10
2023-01-15T00:10:29.117Z,9.10
2023-01-15T00:13:42.347Z,9.20
2023-01-15T00:16:35.672Z,9.20
2023-01-15T00:19:23.854Z,9.30
2023-01-15T00:22:20.008Z,9.40
2023-01-15T00:25:30.361Z,9.40
2023-01-15T00:28:26.822Z,9.50
2023-01-15T00:31:15.053Z,9.50
2023-01-15T00:34:06.049Z,9.50
2023-01-15T00:36:56.570Z,9.50
2023-01-15T00:39:49.002Z,9.50
2023-01-15T00:42:39.549Z,9.50
2023-01-15T00:45:27.527Z,9.50
2023-01-15T00:48:19.053Z,9.60
2023-01-15T00:51:09.579Z,9.50
2023-01-15T00:54:03.187Z,9.50
2023-01-15T00:57:02.047Z,9.50
2023-01-15T00:59:53.377Z,9.50
2023-01-15T01:02:45.993Z,9.50
2023-01-15T01:05:40.951Z,9.50
2023-01-15T01:08:37.921Z,9.40
2023-01-15T01:14:48.432Z,9.20
2023-01-15T01:17:51.675Z,9.10
2023-01-15T01:20:42.102Z,9.20
2023-01-15T01:23:30.292Z,9.20
2023-01-15T01:26:21.484Z,9.20
2023-01-15T01:29:20.675Z,9.20
2023-01-15T01:32:11.334Z,9.10
2023-01-15T01:35:02.239Z,9.10
2023-01-15T01:37:53.593Z,9.10
2023-01-15T01:40:50.579Z,9.10
2023-01-15T01:43:57.599Z,9.10
2023-01-15T01:46:45.963Z,9.10
2023-01-15T01:49:41.033Z,9.10
2023-01-15T01:52:37.587Z,9.10
2023-01-15T01:55:31.668Z,9.10
2023-01-15T01:58:26.767Z,9.10
2023-01-15T02:01:20.012Z,9.00
2023-01-15T02:04:15.695Z,9.00
2023-01-15T02:07:05.020Z,9.10
2023-01-15T02:09:56.224Z,9.10
2023-01-15T02:12:56.147Z,9.10
2023-01-15T02:21:59.927Z,8.50
2023-01-15T02:25:41.934Z,8.30
2023-01-15T02:29:06.890Z,8.10
2023-01-15T02:56:42.560Z,8.20
2023-01-15T03:06:37.466Z,7.90
2023-01-15T03:09:47.582Z,7.80
2023-01-15T03:16:46.995Z,7.50
2023-01-15T03:20:31.612Z,7.40
2023-01-15T03:23:47.856Z,7.30
2023-01-15T03:26:46.667Z,7.40
2023-01-15T03:29:54.442Z,7.40
2023-01-15T03:32:48.209Z,7.40
2023-01-15T03:43:25.724Z,6.80
2023-01-15T03:47:09.371Z,6.70
2023-01-15T03:50:14.837Z,6.60
2023-01-15T04:50:22.314Z,5.40
2023-01-15T04:53:13.959Z,5.40
2023-01-15T04:56:14.843Z,5.40
2023-01-15T04:59:13.125Z,5.50
2023-01-15T05:02:18.051Z,5.50
2023-01-15T05:05:09.675Z,5.50
2023-01-15T05:07:59.793Z,5.40
2023-01-15T05:10:50.498Z,5.50
2023-01-15T05:13:41.791Z,5.50
2023-01-15T05:16:46.974Z,5.50
2023-01-15T05:19:40.630Z,5.60
2023-01-15T05:22:45.449Z,5.40
2023-01-15T05:25:43.656Z,5.40
2023-01-15T05:28:35.776Z,5.30
2023-01-15T05:31:35.920Z,5.30
2023-01-15T05:34:27.244Z,5.20
2023-01-15T05:37:39.596Z,5.20
2023-01-15T05:43:35.285Z,5.20
2023-01-15T05:46:25.951Z,5.20
2023-01-15T05:49:19.987Z,5.20
2023-01-15T05:52:08.921Z,5.20
2023-01-15T06:05:32.608Z,5.20
2023-01-15T06:14:30.914Z,5.20
2023-01-15T06:17:22.011Z,5.20
2023-01-15T06:20:21.591Z,5.00
2023-01-15T06:23:21.813Z,5.00
2023-01-15T06:29:23.628Z,4.90
2023-01-15T06:42:42.123Z,4.60
2023-01-15T06:45:58.730Z,4.60
2023-01-15T06:53:53.646Z,4.70
2023-01-15T07:04:09.753Z,4.60
2023-01-15T07:07:36.610Z,4.50
2023-01-15T07:11:01.722Z,4.40
2023-01-15T07:25:31.854Z,4.30
2023-01-15T07:29:19.357Z,4.20
2023-01-15T07:39:12.935Z,4.10
2023-01-15T07:42:32.560Z,4.20
2023-01-15T07:45:43.719Z,4.20
2023-01-15T07:48:52.816Z,4.20
2023-01-15T07:51:56.758Z,4.20
2023-01-15T07:54:56.992Z,4.20
2023-01-15T07:58:12.297Z,4.20
2023-01-15T08:01:11.014Z,4.30
2023-01-15T08:04:22.143Z,4.30
2023-01-15T08:07:27.929Z,4.40
2023-01-15T08:10:26.421Z,4.40
2023-01-15T08:13:36.253Z,4.40
2023-01-15T08:16:38.463Z,4.50
2023-01-15T08:19:33.579Z,4.60
2023-01-15T08:22:28.847Z,4.60
2023-01-15T08:25:24.098Z,4.60
2023-01-15T08:28:36.888Z,4.70
2023-01-15T08:35:21.220Z,4.70
2023-01-15T08:45:31.089Z,4.80
2023-01-15T09:06:05.557Z,4.80
2023-01-15T09:08:57.098Z,4.80
2023-01-15T09:15:29.754Z,4.80
2023-01-15T09:19:06.098Z,4.80
2023-01-15T09:28:21.809Z,4.80
2023-01-15T09:31:31.434Z,4.80
2023-01-15T09:34:50.958Z,4.80
2023-01-15T09:38:11.241Z,4.80
2023-01-15T10:21:02.021Z,5.00
2023-01-15T10:24:24.700Z,5.00
2023-01-15T10:30:49.719Z,5.10
2023-01-15T10:34:02.859Z,5.10
2023-01-15T10:36:58.599Z,5.10
2023-01-15T10:40:22.945Z,5.10
2023-01-15T10:43:32.622Z,5.10
2023-01-15T10:49:51.621Z,5.10
2023-01-15T10:53:11.937Z,5.10
2023-01-15T11:00:16.576Z,5.20
2023-01-15T11:03:52.347Z,5.20
2023-01-15T11:07:17.324Z,5.20
2023-01-15T11:10:14.886Z,5.30
2023-01-15T11:13:34.259Z,5.40
2023-01-15T11:16:49.354Z,5.40
2023-01-15T11:19:40.938Z,5.40
2023-01-15T11:22:38.821Z,5.50
2023-01-15T11:25:41.299Z,5.50
2023-01-15T11:28:46.833Z,5.70
2023-01-15T11:31:43.114Z,5.80
2023-01-15T11:34:34.610Z,5.70
2023-01-15T11:37:22.447Z,5.80
2023-01-15T11:40:24.080Z,5.80
2023-01-15T11:43:40.573Z,5.80
2023-01-15T11:47:04.698Z,5.90
2023-01-15T11:50:12.808Z,6.00
2023-01-15T11:53:03.209Z,6.00
2023-01-15T11:56:00.118Z,6.00
2023-01-15T11:58:54.725Z,5.80
2023-01-15T12:01:52.831Z,5.80
2023-01-15T12:05:10.125Z,5.90
2023-01-15T12:08:03.575Z,6.20
2023-01-15T12:11:27.058Z,6.60
2023-01-15T12:14:34.787Z,6.50
2023-01-15T12:17:54.924Z,7.40
2023-01-15T12:20:48.549Z,8.80
2023-01-15T12:24:02.182Z,8.80
2023-01-15T12:30:35.911Z,9.00
2023-01-15T12:33:56.357Z,8.90
2023-01-15T12:40:28.481Z,7.50
2023-01-15T12:47:48.014Z,7.00
2023-01-15T12:51:02.419Z,6.70
2023-01-15T12:54:10.726Z,6.50
2023-01-15T12:57:18.512Z,6.50
2023-01-15T13:16:23.969Z,6.70
2023-01-15T13:19:21.900Z,6.90
2023-01-15T13:23:18.762Z,7.10
2023-01-15T13:26:53.113Z,7.00
2023-01-15T13:30:30.258Z,6.80
2023-01-15T13:34:00.400Z,6.80
2023-01-15T13:37:28.401Z,6.80
2023-01-15T13:43:09.698Z,6.70
2023-01-15T13:46:22.989Z,6.70
2023-01-15T13:49:39.618Z,6.80
2023-01-15T14:08:13.876Z,7.80
2023-01-15T14:15:21.507Z,6.90
2023-01-15T14:22:27.776Z,7.00
2023-01-15T14:29:48.132Z,6.90
2023-01-15T14:35:26.005Z,7.00
2023-01-15T14:38:18.622Z,7.00
2023-01-15T14:41:11.273Z,6.90
2023-01-15T14:44:12.386Z,6.90
2023-01-15T14:47:11.149Z,7.00
2023-01-15T14:50:23.505Z,7.00
2023-01-15T14:53:20.119Z,7.00
2023-01-15T14:56:43.275Z,7.10
2023-01-15T15:00:40.335Z,7.00
2023-01-15T15:04:02.984Z,7.00
2023-01-15T15:07:04.724Z,7.00
2023-01-15T15:10:20.627Z,7.00
2023-01-15T15:13:33.748Z,7.00
2023-01-15T15:16:30.259Z,6.90
2023-01-15T15:19:55.621Z,6.90
2023-01-15T15:22:46.638Z,6.90
2023-01-15T15:25:39.634Z,6.80
2023-01-15T15:28:33.668Z,6.80
2023-01-15T15:31:28.692Z,6.80
2023-01-15T15:34:42.412Z,6.80
2023-01-15T15:37:32.036Z,6.70
2023-01-15T15:40:34.995Z,6.70
2023-01-15T15:44:04.488Z,6.60
2023-01-15T15:47:11.724Z,6.60
2023-01-15T15:54:38.444Z,6.60
2023-01-15T15:57:49.701Z,6.50
2023-01-15T16:00:47.259Z,6.50
2023-01-15T16:03:37.737Z,6.40
2023-01-15T16:06:28.162Z,6.50
2023-01-15T16:09:46.689Z,6.50
2023-01-15T16:13:05.865Z,6.40
2023-01-15T16:15:57.272Z,6.40
2023-01-15T16:18:52.459Z,6.20
2023-01-15T16:21:51.888Z,6.10
2023-01-15T16:26:20.031Z,5.90
2023-01-15T16:38:03.508Z,5.50
2023-01-15T16:55:48.411Z,5.80
2023-01-15T17:02:08.872Z,5.80
2023-01-15T17:13:38.696Z,5.70
2023-01-15T17:19:39.873Z,5.60
2023-01-15T17:22:52.590Z,5.50
2023-01-15T17:25:53.619Z,5.50
2023-01-15T17:28:49.207Z,5.40
2023-01-15T17:38:00.418Z,5.30
2023-01-15T17:41:10.612Z,5.20
2023-01-15T17:46:49.318Z,5.20
2023-01-15T18:04:18.269Z,5.00
2023-01-15T18:10:38.665Z,4.90
2023-01-15T19:36:56.481Z,5.20
2023-01-15T19:53:10.786Z,5.30
2023-01-15T20:00:11.951Z,5.40
2023-01-15T20:06:28.498Z,5.40
2023-01-15T20:09:23.520Z,5.40
2023-01-15T20:12:39.397Z,5.40
2023-01-15T20:15:31.338Z,5.30
2023-01-15T20:18:19.170Z,5.20
2023-01-15T20:21:20.718Z,5.00
2023-01-15T20:24:20.437Z,5.00
2023-01-15T20:41:20.689Z,4.40
2023-01-15T20:53:42.026Z,4.10
2023-01-15T21:14:49.858Z,4.10
2023-01-15T21:26:55.988Z,4.10
2023-01-15T21:30:50.595Z,4.00
2023-01-15T21:44:45.776Z,4.00
2023-01-15T21:47:46.899Z,4.00
2023-01-15T21:50:53.942Z,4.00
2023-01-15T21:55:39.194Z,4.00
2023-01-15T22:11:38.097Z,4.10
2023-01-15T22:21:24.342Z,4.20
2023-01-15T22:24:23.321Z,4.20
2023-01-15T22:27:21.762Z,4.20
2023-01-15T22:30:19.963Z,4.30
2023-01-15T22:33:23.113Z,4.30
2023-01-15T22:36:26.155Z,4.40
2023-01-15T22:39:21.020Z,4.40
2023-01-15T22:42:37.128Z,4.30
2023-01-15T22:45:34.680Z,4.30
2023-01-15T22:48:35.553Z,4.30
2023-01-15T22:51:26.607Z,4.30
2023-01-15T22:54:24.934Z,4.30
2023-01-15T22:57:27.153Z,4.30
2023-01-15T23:00:15.663Z,4.40
2023-01-15T23:03:15.464Z,4.40
2023-01-15T23:06:28.733Z,4.40
2023-01-15T23:09:38.279Z,4.40
2023-01-15T23:12:47.074Z,4.40
2023-01-15T23:15:52.675Z,4.50
2023-01-15T23:22:16.287Z,4.60
2023-01-15T23:25:27.269Z,4.60
2023-01-15T23:28:21.076Z,4.60
2023-01-15T23:31:27.302Z,4.50
2023-01-15T23:34:53.433Z,4.50
2023-01-15T23:37:58.164Z,4.60
2023-01-15T23:40:57.017Z,4.60
2023-01-15T23:44:05.573Z,4.70
2023-01-15T23:46:59.731Z,4.80
2023-01-15T23:49:59.120Z,4.80
2023-01-15T23:52:59.353Z,4.90
2023-01-15T23:55:56.516Z,4.90
2023-01-15T23:58:50.273Z,4.90
